Time;durP1;ratioP1;P1;durP2;ratioP2;P2;SDS_P1;SDS_P2;PMS_P1;PMS_P2;Temp;Humidity;BMP_temperature;BMP_pressure;BME280_temperature;BME280_humidity;BME280_pressure;Samples;Min_cycle;Max_cycle;Signal;HPM_P1;HPM_P2
2022/10/04 00:02:25;;;;;;;19.30;8.50;;;11.30;99.90;;;;;;6217898;23;20440;-87
2022/10/04 00:05:11;;;;;;;16.30;8.98;;;11.40;99.90;;;;;;6217905;23;20517;-87
2022/10/04 00:07:57;;;;;;;16.23;9.32;;;11.40;99.90;;;;;;6217701;23;20012;-87
2022/10/04 00:10:41;;;;;;;22.42;9.50;;;11.90;99.90;;;;;;6218234;23;20016;-87
2022/10/04 00:13:22;;;;;;;20.40;9.57;;;11.70;99.90;;;;;;6245442;23;20012;-87
2022/10/04 00:16:04;;;;;;;15.02;9.15;;;12.50;99.90;;;;;;6217686;23;20583;-87
2022/10/04 00:18:39;;;;;;;17.35;9.02;;;11.40;99.90;;;;;;6217991;23;20016;-87
2022/10/04 00:21:06;;;;;;;21.77;9.50;;;11.40;99.90;;;;;;6217478;23;20040;-87
2022/10/04 00:23:35;;;;;;;16.80;9.40;;;11.40;99.90;;;;;;6218510;23;20012;-87
2022/10/04 00:26:04;;;;;;;20.55;10.98;;;11.30;99.90;;;;;;6245808;23;20020;-86
2022/10/04 00:28:35;;;;;;;21.55;10.88;;;11.70;99.90;;;;;;6217123;23;20043;-87
2022/10/04 00:31:09;;;;;;;22.55;10.07;;;11.40;99.90;;;;;;6218374;23;20391;-87
2022/10/04 00:33:46;;;;;;;19.15;9.38;;;11.40;99.90;;;;;;6245620;23;20100;-87
2022/10/04 00:36:24;;;;;;;18.45;9.23;;;11.30;99.90;;;;;;6216793;23;20046;-87
2022/10/04 00:39:08;;;;;;;20.77;9.20;;;11.40;99.90;;;;;;6218260;23;20027;-87
2022/10/04 00:41:37;;;;;;;20.58;9.13;;;11.30;99.90;;;;;;6245614;23;20024;-87
2022/10/04 00:44:05;;;;;;;19.52;9.10;;;11.30;99.90;;;;;;6217240;23;20043;-86
2022/10/04 00:46:32;;;;;;;15.60;8.27;;;11.30;99.90;;;;;;6218058;23;20023;-86
2022/10/04 00:49:05;;;;;;;15.77;8.23;;;11.30;99.90;;;;;;6217356;23;20539;-87
2022/10/04 00:51:42;;;;;;;18.00;8.38;;;11.30;99.90;;;;;;6244548;23;20460;-87
2022/10/04 00:54:21;;;;;;;17.02;8.57;;;11.20;99.90;;;;;;6217180;23;20024;-87
2022/10/04 00:56:49;;;;;;;15.15;7.53;;;11.20;99.90;;;;;;6217283;23;20095;-87
2022/10/04 00:59:27;;;;;;;18.73;8.55;;;11.20;99.90;;;;;;6217751;23;20016;-87
2022/10/04 01:02:02;;;;;;;17.55;8.02;;;11.20;99.90;;;;;;6218226;23;20078;-86
2022/10/04 01:04:51;;;;;;;19.25;8.95;;;11.40;99.90;;;;;;6243833;23;20030;-87
2022/10/04 01:07:26;;;;;;;22.42;9.50;;;11.20;99.90;;;;;;6205698;23;20027;-87
2022/10/04 01:10:04;;;;;;;17.67;9.07;;;11.90;99.90;;;;;;6218385;23;20012;-87
2022/10/04 01:12:44;;;;;;;16.83;8.98;;;11.20;99.90;;;;;;6216784;23;20016;-87
2022/10/04 01:15:25;;;;;;;16.90;8.50;;;11.20;99.90;;;;;;6217679;23;20087;-86
2022/10/04 01:18:28;;;;;;;17.25;8.23;;;11.20;99.90;;;;;;6217309;23;20019;-87
2022/10/04 01:21:16;;;;;;;19.40;8.93;;;11.10;99.90;;;;;;6218123;23;20387;-87
2022/10/04 01:23:47;;;;;;;15.35;8.60;;;11.10;99.90;;;;;;6212259;23;20016;-87
2022/10/04 01:26:33;;;;;;;24.25;9.88;;;11.10;99.90;;;;;;6243758;23;20020;-87
2022/10/04 01:29:25;;;;;;;20.50;9.10;;;11.00;99.90;;;;;;6244439;23;20095;-87
2022/10/04 01:31:57;;;;;;;17.65;8.80;;;11.10;99.90;;;;;;6216959;23;20016;-86
2022/10/04 01:34:28;;;;;;;18.25;9.13;;;11.10;99.90;;;;;;6244595;23;20025;-87
2022/10/04 01:39:32;;;;;;;20.13;8.93;;;11.00;99.90;;;;;;6261545;22;20359;-87
2022/10/04 01:49:21;;;;;;;17.08;9.32;;;11.00;99.90;;;;;;6276791;22;20343;-87
2022/10/04 01:52:06;;;;;;;21.77;9.63;;;11.00;99.90;;;;;;6277300;22;20467;-88
2022/10/04 01:54:33;;;;;;;;;;;10.90;99.90;;;;;;6277460;22;20011;-87
2022/10/04 01:57:06;;;;;;;21.13;10.85;;;11.90;99.90;;;;;;6250772;22;19916;-87
2022/10/04 02:00:01;;;;;;;19.98;10.75;;;12.20;99.90;;;;;;6276566;22;20020;-87
2022/10/04 02:02:34;;;;;;;20.30;10.70;;;11.00;99.90;;;;;;6248563;22;20086;-87
2022/10/04 02:05:20;;;;;;;19.60;10.23;;;12.20;99.90;;;;;;6276949;22;20016;-87
2022/10/04 02:15:19;;;;;;;19.92;9.27;;;11.10;99.90;;;;;;6275694;22;20014;-87
2022/10/04 02:17:48;;;;;;;22.13;9.60;;;10.20;99.90;;;;;;6277437;22;20015;-87
2022/10/04 02:20:23;;;;;;;19.77;9.82;;;12.10;99.90;;;;;;6248980;22;20007;-87
2022/10/04 02:22:54;;;;;;;18.80;9.30;;;11.10;99.90;;;;;;6249123;22;20015;-87
2022/10/04 02:25:25;;;;;;;17.75;9.43;;;12.40;99.90;;;;;;6249610;22;20395;-87
2022/10/04 02:27:52;;;;;;;21.60;9.27;;;11.10;99.90;;;;;;6276637;22;20069;-87
2022/10/04 02:30:18;;;;;;;25.15;9.98;;;11.10;99.90;;;;;;6249528;22;20008;-87
2022/10/04 02:32:56;;;;;;;19.73;9.40;;;11.20;99.90;;;;;;6277372;22;20107;-87
2022/10/04 02:35:24;;;;;;;18.60;9.43;;;11.20;99.90;;;;;;6275613;22;20012;-87
2022/10/04 02:38:14;;;;;;;18.42;9.20;;;11.20;99.90;;;;;;6277365;22;20027;-87
2022/10/04 02:40:54;;;;;;;20.58;9.43;;;11.80;99.90;;;;;;6248777;22;20027;-87
2022/10/04 02:43:50;;;;;;;17.20;8.73;;;11.20;99.90;;;;;;6275968;22;20447;-87
2022/10/04 02:46:24;;;;;;;18.67;9.73;;;11.20;99.90;;;;;;6277358;22;20038;-87
2022/10/04 02:48:49;;;;;;;18.85;9.27;;;11.60;99.90;;;;;;6276092;22;20054;-87
2022/10/04 02:51:48;;;;;;;16.85;8.80;;;11.10;99.90;;;;;;6249612;22;20020;-87
2022/10/04 02:54:44;;;;;;;18.33;8.80;;;11.10;99.90;;;;;;6247362;22;20018;-87
2022/10/04 02:57:23;;;;;;;20.75;9.43;;;11.10;99.90;;;;;;6247889;22;20042;-87
2022/10/04 02:59:50;;;;;;;16.13;9.00;;;11.00;99.90;;;;;;6249926;22;20027;-87
2022/10/04 03:02:28;;;;;;;22.08;8.95;;;11.00;99.90;;;;;;6244039;22;20428;-87
2022/10/04 03:05:03;;;;;;;22.35;9.25;;;10.70;99.90;;;;;;6248548;22;20118;-87
2022/10/04 03:07:34;;;;;;;18.75;9.07;;;11.00;99.90;;;;;;6249021;22;20091;-87
2022/10/04 03:10:06;;;;;;;19.70;8.98;;;10.90;99.90;;;;;;6275816;22;20383;-86
2022/10/04 03:12:32;;;;;;;18.50;8.95;;;10.80;99.90;;;;;;6249494;22;20015;-86
2022/10/04 03:14:59;;;;;;;16.90;8.75;;;10.80;99.90;;;;;;6249320;22;20015;-87
2022/10/04 03:17:24;;;;;;;17.30;8.55;;;10.70;99.90;;;;;;6247906;22;20012;-86
2022/10/04 03:19:51;;;;;;;21.95;9.48;;;10.70;99.90;;;;;;6276793;22;20019;-87
2022/10/04 03:22:17;;;;;;;20.10;9.63;;;10.70;99.90;;;;;;6249052;22;20061;-86
2022/10/04 03:24:49;;;;;;;18.73;9.48;;;10.60;99.90;;;;;;6275483;22;20523;-86
2022/10/04 03:27:20;;;;;;;27.98;9.65;;;10.60;99.90;;;;;;6276365;22;20011;-86
2022/10/04 03:29:46;;;;;;;20.00;9.57;;;10.60;99.90;;;;;;6277055;22;20018;-86
2022/10/04 03:32:17;;;;;;;18.33;9.65;;;11.30;99.90;;;;;;6248211;22;20007;-86
2022/10/04 03:34:59;;;;;;;18.92;9.82;;;10.50;99.90;;;;;;6249244;22;20062;-86
2022/10/04 03:37:28;;;;;;;23.38;10.23;;;10.50;99.90;;;;;;6248911;22;20008;-87
2022/10/04 03:39:55;;;;;;;21.05;10.45;;;10.50;99.90;;;;;;6248317;22;20050;-86
2022/10/04 03:42:30;;;;;;;18.73;9.82;;;10.50;99.90;;;;;;6248719;22;20015;-86
2022/10/04 03:45:17;;;;;;;20.98;11.10;;;10.80;99.90;;;;;;6248629;22;20011;-87
2022/10/04 03:47:47;;;;;;;20.73;10.77;;;10.50;99.90;;;;;;6249002;22;20133;-86
2022/10/04 03:50:12;;;;;;;19.30;11.32;;;10.50;99.90;;;;;;6249312;22;20016;-86
2022/10/04 03:52:42;;;;;;;20.35;11.40;;;11.40;99.90;;;;;;6248216;22;20103;-87
2022/10/04 03:55:13;;;;;;;22.73;10.90;;;10.50;99.90;;;;;;6248622;22;20095;-86
2022/10/04 03:57:39;;;;;;;24.60;11.73;;;10.50;99.90;;;;;;6248777;22;20016;-86
2022/10/04 04:00:08;;;;;;;22.30;11.50;;;11.20;99.90;;;;;;6275086;22;20015;-86
2022/10/04 04:02:45;;;;;;;22.92;11.40;;;10.40;99.90;;;;;;6248905;22;20023;-87
2022/10/04 04:05:36;;;;;;;21.77;10.82;;;10.40;99.90;;;;;;6274230;22;20063;-86
2022/10/04 04:08:22;;;;;;;21.75;11.77;;;10.40;99.90;;;;;;6247316;22;20083;-87
2022/10/04 04:10:52;;;;;;;21.10;11.65;;;10.40;99.90;;;;;;6275914;22;20031;-87
2022/10/04 04:13:33;;;;;;;23.77;12.65;;;11.10;99.90;;;;;;6274776;22;20016;-87
2022/10/04 04:16:01;;;;;;;22.95;11.55;;;10.40;99.90;;;;;;6249168;22;20047;-86
2022/10/04 04:18:32;;;;;;;20.55;11.40;;;10.40;99.90;;;;;;6248801;22;20023;-86
2022/10/04 04:21:01;;;;;;;19.60;11.20;;;10.50;99.90;;;;;;6248111;22;20020;-87
2022/10/04 04:23:31;;;;;;;25.58;12.25;;;10.40;99.90;;;;;;6248499;22;20098;-87
2022/10/04 04:26:13;;;;;;;21.48;12.35;;;10.40;99.90;;;;;;6276241;22;20022;-87
2022/10/04 04:28:43;;;;;;;22.40;11.77;;;10.30;99.90;;;;;;6248225;22;20095;-87
2022/10/04 04:31:30;;;;;;;23.08;12.73;;;10.30;99.90;;;;;;6248843;22;20024;-86
2022/10/04 04:33:59;;;;;;;23.08;11.23;;;10.30;99.90;;;;;;6249021;22;20447;-87
2022/10/04 04:36:31;;;;;;;26.25;11.68;;;10.30;99.90;;;;;;6247822;22;20027;-87
2022/10/04 04:42:05;;;;;;;23.52;12.18;;;10.20;99.90;;;;;;6275332;22;20019;-86
2022/10/04 04:44:32;;;;;;;25.63;13.27;;;10.60;99.90;;;;;;6248832;22;20027;-86
2022/10/04 04:46:59;;;;;;;24.00;13.85;;;10.20;99.90;;;;;;6276418;22;20007;-86
2022/10/04 04:49:28;;;;;;;27.67;14.18;;;10.10;99.90;;;;;;6247645;22;20016;-86
2022/10/04 04:51:57;;;;;;;26.85;14.02;;;10.20;99.90;;;;;;6249994;22;20016;-86
2022/10/04 04:54:25;;;;;;;27.65;14.27;;;10.10;99.90;;;;;;6251182;22;20029;-86
2022/10/04 04:56:56;;;;;;;25.25;14.73;;;10.10;99.90;;;;;;6252310;22;20011;-86
2022/10/04 04:59:23;;;;;;;23.55;12.93;;;10.10;99.90;;;;;;6248961;22;20020;-87
2022/10/04 05:01:52;;;;;;;24.67;14.20;;;10.10;99.90;;;;;;6248372;22;20015;-87
2022/10/04 05:04:22;;;;;;;26.13;13.35;;;10.10;99.90;;;;;;6274148;22;20012;-87
2022/10/04 05:07:15;;;;;;;29.88;13.40;;;10.00;99.90;;;;;;6275520;22;20363;-87
2022/10/04 05:09:41;;;;;;;24.08;13.20;;;10.00;99.90;;;;;;6241690;22;20492;-87
2022/10/04 05:12:12;;;;;;;25.35;13.70;;;11.10;99.90;;;;;;6275068;22;20431;-87
2022/10/04 05:14:43;;;;;;;24.70;13.43;;;10.00;99.90;;;;;;6248306;22;20015;-87
2022/10/04 05:17:21;;;;;;;26.27;14.15;;;9.90;99.90;;;;;;6247315;22;20015;-87
2022/10/04 05:19:48;;;;;;;29.05;14.75;;;9.90;99.90;;;;;;6275558;22;20022;-87
2022/10/04 05:22:19;;;;;;;27.70;14.82;;;9.90;99.90;;;;;;6247863;22;20023;-87
2022/10/04 05:24:49;;;;;;;26.70;14.45;;;9.80;99.90;;;;;;6247588;22;20024;-87
2022/10/04 05:27:35;;;;;;;28.02;14.60;;;9.80;99.90;;;;;;6246855;22;20023;-87
2022/10/04 05:30:05;;;;;;;25.35;14.05;;;9.70;99.90;;;;;;6248166;22;20343;-87
2022/10/04 05:33:04;;;;;;;30.27;15.13;;;9.70;99.90;;;;;;6274448;22;20019;-87
2022/10/04 05:36:00;;;;;;;29.90;14.98;;;9.70;99.90;;;;;;6247678;22;20038;-87
2022/10/04 05:38:33;;;;;;;22.65;13.80;;;9.60;99.90;;;;;;6272557;22;20015;-87
2022/10/04 05:41:33;;;;;;;29.05;15.27;;;9.60;99.90;;;;;;6248450;22;20522;-87
2022/10/04 05:44:00;;;;;;;30.65;14.57;;;9.60;99.90;;;;;;6248261;22;20406;-87
2022/10/04 05:46:32;;;;;;;27.05;14.60;;;9.60;99.90;;;;;;6246760;22;20015;-87
2022/10/04 05:49:10;;;;;;;30.85;14.98;;;9.50;99.90;;;;;;6275468;22;20020;-87
2022/10/04 05:51:47;;;;;;;25.33;14.48;;;9.50;99.90;;;;;;6247592;22;20016;-87
2022/10/04 05:54:12;;;;;;;27.42;14.43;;;9.50;99.90;;;;;;6247788;22;20102;-87
2022/10/04 05:56:51;;;;;;;24.90;13.82;;;9.40;99.90;;;;;;6248527;22;20050;-87
2022/10/04 05:59:55;;;;;;;29.67;14.52;;;9.50;99.90;;;;;;6272985;22;20023;-87
2022/10/04 06:02:28;;;;;;;;;;;9.50;99.90;;;;;;6222476;22;20409;-87
2022/10/04 06:04:57;;;;;;;31.25;15.38;;;9.50;99.90;;;;;;6247210;22;19923;-87
2022/10/04 06:07:48;;;;;;;26.48;15.88;;;9.90;99.90;;;;;;6246758;22;20408;-87
2022/10/04 06:10:17;;;;;;;29.55;14.80;;;9.50;99.90;;;;;;6247712;22;20095;-87
2022/10/04 06:12:58;;;;;;;28.15;15.43;;;9.50;99.90;;;;;;6247245;22;20022;-88
2022/10/04 06:15:33;;;;;;;28.17;15.75;;;9.50;99.90;;;;;;6247691;22;20063;-87
2022/10/04 06:18:13;;;;;;;30.45;15.60;;;9.50;99.90;;;;;;6248027;22;20069;-87
2022/10/04 06:20:49;;;;;;;32.50;16.00;;;9.50;99.90;;;;;;6274441;22;20016;-87
2022/10/04 06:23:17;;;;;;;27.63;15.52;;;9.50;99.90;;;;;;6247649;22;20022;-84
2022/10/04 06:25:55;;;;;;;26.27;15.40;;;9.50;99.90;;;;;;6247569;22;20408;-83
2022/10/04 06:28:39;;;;;;;28.65;15.18;;;9.50;99.90;;;;;;6274202;22;20074;-82
2022/10/04 06:31:26;;;;;;;27.75;14.80;;;9.50;99.90;;;;;;6248013;22;20055;-84
2022/10/04 06:34:21;;;;;;;29.42;15.85;;;9.50;99.90;;;;;;6232332;22;20044;-83
2022/10/04 06:37:27;;;;;;;28.63;14.93;;;11.00;99.90;;;;;;6249759;22;20039;-84
2022/10/04 06:47:55;;;;;;;27.48;15.80;;;10.00;99.90;;;;;;6276756;22;20072;-84
2022/10/04 07:01:19;;;;;;;29.00;15.43;;;9.30;99.90;;;;;;6272377;22;20023;-82
2022/10/04 07:04:21;;;;;;;30.55;17.85;;;9.20;99.90;;;;;;6192687;22;20343;-82
2022/10/04 07:07:22;;;;;;;29.23;17.65;;;9.70;99.90;;;;;;6249816;22;20451;-82
2022/10/04 07:09:49;;;;;;;30.13;15.75;;;10.10;99.90;;;;;;6276241;22;20020;-81
2022/10/04 07:12:16;;;;;;;31.52;17.00;;;11.10;99.90;;;;;;6249221;22;20008;-82
2022/10/04 07:14:53;;;;;;;29.75;16.67;;;9.90;99.90;;;;;;6249449;22;20012;-82
2022/10/04 07:17:31;;;;;;;35.50;16.80;;;9.90;99.90;;;;;;6275909;22;20026;-82
2022/10/04 07:19:58;;;;;;;31.50;17.25;;;10.00;99.90;;;;;;6249421;22;20043;-82
2022/10/04 07:22:35;;;;;;;29.20;16.45;;;10.10;99.90;;;;;;6249146;22;20440;-82
2022/10/04 07:25:19;;;;;;;28.77;17.27;;;10.20;99.90;;;;;;6248287;22;20011;-84
2022/10/04 07:30:50;;;;;;;29.02;17.38;;;10.50;99.90;;;;;;6248679;22;20106;-84
2022/10/04 07:33:22;;;;;;;30.85;17.00;;;10.60;99.90;;;;;;6276275;22;20050;-85
2022/10/04 07:35:56;;;;;;;28.17;15.18;;;10.80;99.90;;;;;;6249458;22;20047;-85
2022/10/04 07:38:27;;;;;;;27.80;16.75;;;10.80;99.90;;;;;;6248327;22;20016;-85
2022/10/04 07:41:18;;;;;;;26.33;15.20;;;10.90;99.90;;;;;;6249450;22;20020;-85
2022/10/04 07:44:12;;;;;;;24.05;15.02;;;11.00;99.90;;;;;;6248879;22;20186;-85
2022/10/04 07:46:39;;;;;;;;;;;11.00;99.90;;;;;;6277096;22;20372;-85
2022/10/04 07:49:21;;;;;;;24.75;14.25;;;11.10;99.90;;;;;;6248969;22;19911;-85
2022/10/04 07:51:57;;;;;;;25.23;14.57;;;11.10;99.90;;;;;;6275741;22;20012;-85
2022/10/04 07:54:41;;;;;;;26.90;14.90;;;11.20;99.90;;;;;;6249080;22;20018;-85
2022/10/04 07:57:21;;;;;;;23.20;14.48;;;11.30;99.90;;;;;;6275561;22;20012;-85
2022/10/04 08:00:01;;;;;;;23.55;13.98;;;11.40;99.90;;;;;;6248475;22;20099;-85
2022/10/04 08:02:33;;;;;;;23.48;13.95;;;11.50;99.90;;;;;;6248619;22;20023;-85
2022/10/04 08:05:32;;;;;;;20.70;14.02;;;12.50;99.90;;;;;;6275851;22;20020;-85
2022/10/04 08:08:29;;;;;;;24.33;14.20;;;11.70;99.90;;;;;;6276427;22;20055;-85
2022/10/04 08:11:07;;;;;;;25.42;13.68;;;11.80;99.90;;;;;;6248374;22;20479;-85
2022/10/04 08:13:55;;;;;;;22.98;12.82;;;11.80;99.90;;;;;;6275457;22;20025;-85
2022/10/04 08:16:58;;;;;;;22.38;12.52;;;11.80;99.90;;;;;;6248946;22;20020;-84
2022/10/04 08:19:51;;;;;;;26.25;12.98;;;11.90;99.90;;;;;;6274531;22;20026;-85
2022/10/04 08:22:32;;;;;;;21.77;13.05;;;12.00;99.90;;;;;;6275655;22;20094;-86
2022/10/04 08:25:19;;;;;;;20.95;11.70;;;12.10;99.90;;;;;;6275887;22;20125;-85
2022/10/04 08:31:33;;;;;;;20.90;10.30;;;12.40;99.90;;;;;;6186373;23;20025;-86
2022/10/04 08:34:17;;;;;;;19.73;10.20;;;12.60;99.90;;;;;;6186248;23;20476;-86
2022/10/04 08:37:17;;;;;;;20.30;10.48;;;12.80;99.90;;;;;;6257448;22;20320;-86
2022/10/04 08:40:16;;;;;;;17.75;8.95;;;13.50;99.90;;;;;;6222491;22;20501;-86
2022/10/04 08:43:07;;;;;;;16.98;8.95;;;13.00;99.90;;;;;;6247386;22;20011;-86
2022/10/04 08:45:52;;;;;;;17.10;9.52;;;13.10;99.90;;;;;;6248948;22;20150;-86
2022/10/04 08:48:25;;;;;;;16.30;9.13;;;13.10;99.90;;;;;;6246983;22;20016;-86
2022/10/04 08:51:15;;;;;;;15.43;8.32;;;14.00;99.90;;;;;;6248648;22;20023;-85
2022/10/04 08:53:52;;;;;;;17.65;8.65;;;13.00;99.90;;;;;;6276067;22;20015;-85
2022/10/04 08:56:45;;;;;;;18.00;8.50;;;14.10;99.90;;;;;;6274076;22;20443;-85
2022/10/04 08:59:46;;;;;;;18.60;8.88;;;13.00;99.90;;;;;;6248279;22;20018;-85
2022/10/04 09:03:00;;;;;;;17.45;8.93;;;13.70;99.90;;;;;;6246341;22;20456;-86
2022/10/04 09:05:46;;;;;;;16.50;8.77;;;13.10;99.90;;;;;;6115622;22;20030;-86
2022/10/04 09:08:37;;;;;;;17.67;8.52;;;13.20;99.90;;;;;;6248774;22;20443;-85
2022/10/04 09:11:04;;;;;;;14.63;7.90;;;13.30;99.90;;;;;;6276150;22;20019;-85
2022/10/04 09:13:59;;;;;;;16.98;7.93;;;13.50;99.90;;;;;;6273897;22;20027;-85
2022/10/04 09:16:43;;;;;;;19.23;8.10;;;13.50;99.90;;;;;;6247548;22;20061;-85
2022/10/04 09:19:52;;;;;;;16.23;7.80;;;13.70;99.90;;;;;;6275273;22;20509;-85
2022/10/04 09:25:47;;;;;;;14.80;6.72;;;13.90;99.90;;;;;;6247952;22;20355;-85
2022/10/04 09:28:50;;;;;;;13.70;7.50;;;14.00;99.90;;;;;;6275698;22;20051;-85
2022/10/04 09:31:56;;;;;;;14.20;7.22;;;14.10;99.90;;;;;;6246343;22;20015;-86
2022/10/04 09:34:41;;;;;;;15.60;6.82;;;14.20;99.90;;;;;;6249328;22;20022;-86
2022/10/04 09:37:28;;;;;;;13.80;6.07;;;14.30;99.90;;;;;;6247317;22;20016;-88
2022/10/04 09:40:19;;;;;;;12.13;5.97;;;14.30;99.90;;;;;;6275754;22;20035;-85
2022/10/04 09:42:59;;;;;;;15.07;6.38;;;14.40;99.90;;;;;;6248797;22;20065;-85
2022/10/04 09:45:50;;;;;;;15.48;7.28;;;14.40;99.90;;;;;;6247345;22;20020;-85
2022/10/04 09:48:39;;;;;;;14.77;6.50;;;14.50;99.90;;;;;;6275443;22;20018;-85
2022/10/04 09:51:34;;;;;;;17.05;6.80;;;14.60;99.90;;;;;;6246799;22;20016;-84
2022/10/04 09:54:24;;;;;;;18.20;6.70;;;14.70;99.90;;;;;;6275712;22;20015;-85
2022/10/04 09:57:05;;;;;;;13.00;7.03;;;14.80;99.90;;;;;;6248353;22;20047;-85
2022/10/04 10:00:10;;;;;;;14.15;6.80;;;15.30;99.90;;;;;;6247557;22;20055;-85
2022/10/04 10:02:55;;;;;;;16.75;7.53;;;15.00;99.90;;;;;;6098176;23;20085;-85
2022/10/04 10:05:29;;;;;;;12.50;6.15;;;16.00;99.90;;;;;;6266366;22;20016;-85
2022/10/04 10:07:58;;;;;;;15.55;6.63;;;15.20;99.90;;;;;;6249376;22;20500;-85
2022/10/04 10:14:03;;;;;;;14.65;6.10;;;16.70;99.90;;;;;;6157983;23;20017;-87
2022/10/04 10:16:52;;;;;;;14.10;6.65;;;15.50;99.90;;;;;;6181733;23;20796;-86
2022/10/04 10:19:49;;;;;;;14.55;6.40;;;15.50;99.90;;;;;;6260794;22;20354;-87
2022/10/04 10:22:29;;;;;;;14.65;6.22;;;15.70;99.90;;;;;;6249689;22;20026;-86
2022/10/04 10:25:23;;;;;;;12.75;6.10;;;15.80;99.90;;;;;;6249856;22;20440;-86
2022/10/04 10:27:56;;;;;;;13.63;6.10;;;15.90;99.90;;;;;;6246211;22;20012;-88
2022/10/04 10:30:31;;;;;;;13.50;6.20;;;16.70;99.90;;;;;;6249617;22;20031;-85
2022/10/04 10:33:16;;;;;;;16.23;6.32;;;16.30;99.90;;;;;;6249192;22;20027;-86
2022/10/04 10:36:19;;;;;;;15.02;6.18;;;17.30;99.90;;;;;;6250104;22;20027;-86
2022/10/04 10:38:57;;;;;;;14.15;6.15;;;16.40;99.90;;;;;;6249753;22;20022;-83
2022/10/04 10:41:51;;;;;;;15.40;6.63;;;16.50;99.90;;;;;;6248357;22;20027;-85
2022/10/04 10:44:33;;;;;;;12.50;6.18;;;16.40;99.90;;;;;;6249343;22;20015;-83
2022/10/04 10:47:13;;;;;;;11.93;6.07;;;16.50;99.90;;;;;;6248794;22;20044;-82
2022/10/04 10:50:18;;;;;;;17.35;6.45;;;16.70;99.90;;;;;;6277174;22;20065;-82
2022/10/04 10:52:54;;;;;;;;;;;16.80;99.90;;;;;;6250638;22;20069;-83
2022/10/04 10:55:54;;;;;;;14.68;5.60;;;16.90;99.90;;;;;;6248483;22;19923;-82
2022/10/04 10:58:34;;;;;;;12.82;5.10;;;17.10;99.90;;;;;;6277190;22;20069;-83
2022/10/04 11:01:37;;;;;;;13.43;5.25;;;17.10;99.90;;;;;;6249459;22;20016;-83
2022/10/04 11:04:16;;;;;;;12.43;5.20;;;17.20;99.90;;;;;;6249768;22;20459;-83
2022/10/04 11:07:06;;;;;;;12.20;4.70;;;17.10;99.90;;;;;;6250197;22;20013;-83
2022/10/04 11:10:07;;;;;;;13.55;4.95;;;17.40;99.90;;;;;;6249196;22;20015;-83
2022/10/04 11:13:10;;;;;;;12.77;4.78;;;17.50;99.90;;;;;;6250047;22;20395;-83
2022/10/04 11:16:06;;;;;;;13.48;5.28;;;17.60;99.90;;;;;;6276435;22;20011;-83
2022/10/04 11:19:00;;;;;;;11.43;4.35;;;18.10;99.90;;;;;;6249547;22;20090;-82
2022/10/04 11:21:41;;;;;;;12.25;5.60;;;17.60;99.90;;;;;;6277054;22;20016;-83
2022/10/04 11:24:31;;;;;;;12.30;5.38;;;17.70;99.90;;;;;;6248613;22;20089;-83
2022/10/04 11:27:27;;;;;;;11.98;5.63;;;17.70;99.90;;;;;;6277242;22;20075;-83
2022/10/04 11:30:23;;;;;;;13.98;5.00;;;17.70;99.90;;;;;;6249037;22;20432;-83
2022/10/04 11:33:13;;;;;;;12.70;5.15;;;17.70;99.90;;;;;;6249947;22;20440;-83
2022/10/04 11:35:52;;;;;;;12.50;5.28;;;17.80;99.90;;;;;;6249595;22;20016;-82
2022/10/04 11:38:50;;;;;;;14.15;4.85;;;17.80;99.90;;;;;;6275849;22;20309;-82
2022/10/04 11:41:50;;;;;;;11.93;4.88;;;17.70;99.90;;;;;;6274402;22;20444;-82
2022/10/04 11:44:16;;;;;;;13.25;5.13;;;17.90;99.90;;;;;;6275360;22;20019;-84
2022/10/04 11:46:42;;;;;;;12.13;5.10;;;17.70;99.90;;;;;;6276945;22;20444;-83
2022/10/04 11:49:49;;;;;;;10.85;4.45;;;18.50;99.90;;;;;;6248264;22;20011;-82
2022/10/04 11:52:52;;;;;;;14.32;5.35;;;17.90;99.90;;;;;;6247887;22;20015;-83
2022/10/04 11:56:03;;;;;;;9.77;4.35;;;18.00;99.90;;;;;;6246555;22;20011;-83
2022/10/04 11:58:47;;;;;;;12.32;4.15;;;18.00;99.90;;;;;;6248326;22;20343;-83
2022/10/04 12:01:53;;;;;;;13.38;4.28;;;18.40;99.90;;;;;;6248969;22;20098;-83
2022/10/04 12:05:00;;;;;;;13.82;4.65;;;18.00;99.90;;;;;;6248229;22;20012;-83
2022/10/04 12:07:38;;;;;;;10.98;3.75;;;17.90;99.90;;;;;;6249116;22;20020;-85
2022/10/04 12:10:12;;;;;;;11.25;3.75;;;18.10;99.90;;;;;;6249024;22;20059;-84
2022/10/04 12:13:02;;;;;;;11.20;3.90;;;18.20;99.90;;;;;;6247781;22;20022;-84
2022/10/04 12:15:40;;;;;;;11.88;4.00;;;18.40;99.90;;;;;;6276053;22;20023;-84
2022/10/04 12:18:27;;;;;;;10.05;3.70;;;18.30;99.90;;;;;;6275769;22;20313;-84
2022/10/04 12:20:52;;;;;;;11.70;4.18;;;18.30;99.90;;;;;;6275871;22;20490;-85
2022/10/04 12:23:19;;;;;;;10.93;3.85;;;18.30;99.90;;;;;;6248729;22;20015;-84
2022/10/04 12:26:21;;;;;;;10.57;3.60;;;18.30;99.90;;;;;;6247536;22;20031;-85
2022/10/04 12:28:58;;;;;;;11.50;4.07;;;18.50;99.90;;;;;;6248827;22;20325;-84
2022/10/04 12:31:47;;;;;;;12.00;3.90;;;18.60;99.90;;;;;;6275672;22;20038;-83
2022/10/04 12:34:45;;;;;;;11.55;3.97;;;18.50;99.90;;;;;;6248002;22;20067;-83
2022/10/04 12:38:06;;;;;;;12.77;4.03;;;18.50;99.90;;;;;;6255413;22;20016;-82
2022/10/04 12:40:56;;;;;;;11.38;4.68;;;18.60;99.90;;;;;;6189034;22;20038;-83
2022/10/04 12:43:46;;;;;;;10.13;4.00;;;18.60;99.90;;;;;;6247840;22;20017;-83
2022/10/04 12:46:44;;;;;;;12.05;4.70;;;18.80;99.90;;;;;;6248591;22;20051;-83
2022/10/04 12:49:40;;;;;;;9.38;3.80;;;18.90;99.90;;;;;;6248412;22;20073;-83
2022/10/04 12:52:23;;;;;;;15.02;4.18;;;18.90;99.90;;;;;;6276139;22;20023;-83
2022/10/04 12:55:16;;;;;;;9.93;4.43;;;18.70;99.90;;;;;;6275693;22;20087;-87
2022/10/04 12:57:56;;;;;;;11.68;5.00;;;18.50;99.90;;;;;;6276242;22;20023;-92
2022/10/04 13:00:23;;;;;;;11.43;5.15;;;18.70;99.90;;;;;;6248685;22;20023;-90
2022/10/04 13:03:07;;;;;;;11.48;4.78;;;18.70;99.90;;;;;;6240001;22;20023;-88
2022/10/04 13:05:51;;;;;;;10.50;4.93;;;19.70;99.90;;;;;;6276044;22;20447;-82
2022/10/04 13:08:42;;;;;;;11.82;5.00;;;18.70;99.90;;;;;;6247499;22;20027;-82
2022/10/04 13:11:38;;;;;;;14.35;4.95;;;18.80;99.90;;;;;;6248324;22;20016;-82
2022/10/04 13:14:28;;;;;;;14.68;5.00;;;18.80;99.90;;;;;;6275979;22;20343;-82
2022/10/04 13:17:17;;;;;;;14.95;5.97;;;18.80;99.90;;;;;;6247833;22;20072;-82
2022/10/04 13:19:55;;;;;;;13.32;5.20;;;18.90;99.90;;;;;;6276188;22;20019;-82
2022/10/04 13:22:39;;;;;;;10.50;5.45;;;18.70;99.90;;;;;;6247305;22;20023;-82
2022/10/04 13:25:14;;;;;;;11.52;5.20;;;18.60;99.90;;;;;;6248773;22;20020;-82
2022/10/04 13:28:01;;;;;;;12.35;5.18;;;19.10;99.90;;;;;;6275965;22;20540;-82
2022/10/04 13:30:31;;;;;;;12.10;4.90;;;18.70;99.90;;;;;;6247462;22;20189;-82
2022/10/04 13:33:13;;;;;;;13.20;4.70;;;18.90;99.90;;;;;;6248937;22;20016;-82
2022/10/04 13:35:52;;;;;;;12.70;5.25;;;18.80;99.90;;;;;;6248724;22;20023;-82
2022/10/04 13:38:56;;;;;;;14.32;5.28;;;18.90;99.90;;;;;;6248352;22;20022;-82
2022/10/04 13:41:49;;;;;;;12.73;5.07;;;18.80;99.90;;;;;;6248204;22;20387;-82
2022/10/04 13:44:42;;;;;;;12.50;4.60;;;19.10;99.90;;;;;;6277092;22;20020;-82
2022/10/04 13:47:36;;;;;;;13.07;5.32;;;19.00;99.90;;;;;;6278016;22;20012;-82
2022/10/04 13:50:13;;;;;;;15.13;5.95;;;18.60;99.90;;;;;;6249732;22;20099;-82
2022/10/04 13:58:42;;;;;;;11.00;4.70;;;17.70;99.90;;;;;;6249143;22;20016;-82
2022/10/04 14:01:35;;;;;;;12.98;4.97;;;17.60;99.90;;;;;;6250308;22;20099;-82
2022/10/04 14:04:29;;;;;;;11.30;4.50;;;17.70;99.90;;;;;;6276345;22;20105;-82
2022/10/04 14:07:28;;;;;;;12.88;4.90;;;17.70;99.90;;;;;;6250406;22;20024;-82
2022/10/04 14:10:09;;;;;;;11.85;4.80;;;18.10;99.90;;;;;;6250790;22;20015;-82
2022/10/04 14:13:16;;;;;;;12.55;5.28;;;18.20;99.90;;;;;;6275803;22;20015;-82
2022/10/04 14:16:10;;;;;;;12.50;5.18;;;18.30;99.90;;;;;;6277060;22;20024;-82
2022/10/04 14:19:02;;;;;;;12.60;5.20;;;18.50;99.90;;;;;;6276783;22;20089;-82
2022/10/04 14:21:52;;;;;;;13.95;5.28;;;18.50;99.90;;;;;;6249748;22;20020;-82
2022/10/04 14:24:54;;;;;;;13.70;5.65;;;18.40;99.90;;;;;;6249776;22;20054;-82
2022/10/04 14:27:26;;;;;;;14.88;5.55;;;18.30;99.90;;;;;;6248711;22;20016;-82
2022/10/04 14:30:22;;;;;;;13.43;5.53;;;18.40;99.90;;;;;;6277501;22;20086;-82
2022/10/04 14:33:16;;;;;;;11.00;4.90;;;18.50;99.90;;;;;;6249416;22;20015;-83
2022/10/04 14:36:03;;;;;;;12.57;5.03;;;18.50;99.90;;;;;;6277723;22;20012;-82
2022/10/04 14:38:52;;;;;;;12.43;5.00;;;18.40;99.90;;;;;;6249697;22;20008;-82
2022/10/04 14:41:45;;;;;;;11.98;4.90;;;18.50;99.90;;;;;;6249244;22;20020;-82
2022/10/04 14:45:05;;;;;;;11.63;4.65;;;18.40;99.90;;;;;;6277335;22;20018;-82
2022/10/04 14:48:05;;;;;;;11.70;5.32;;;18.60;99.90;;;;;;6201314;22;20019;-82
2022/10/04 14:50:54;;;;;;;16.48;5.70;;;18.70;99.90;;;;;;6277774;22;20094;-82